Main page
METAR-TAF:

METAR-TAF

Airports :

Maramures Airport

Baia Mare, Romania

latitude: 47-40N, longitude: 023-35E, elevation: 218 m

Current weather observation

The report was made 38 minutes ago, at 19:00 UTC
Wind 3 kt from the North/Northwest, varying between West/Northwest and North/Northeast
Temperature 12°C
Humidity 82%
Pressure 1017 hPa
Visibility 10 km or more

METAR: LRBM 281900Z AUTO 33003KT 290V030 9999 NCD 12/09 Q1017

Time: 22:38 (19:38 UTC)

Forecast

The report was made 5 hours and 38 minutes ago, at 14:00 UTC
Forecast valid from 28 at 15 UTC to 29 at 00 UTC
Wind 4 kt from variable directions
Visibility 10 km or more
Scattered clouds at a height of 4500 ft, Cumulonimbus.
Temporary
from 28 at 15 UTC to 28 at 17 UTC
Wind 15 kt from variable directions
Visibility: 5000 m
thunderstorm, rain
Becoming
from 28 at 17 UTC to 28 at 19 UTC

TAF: LRBM 281400Z 2815/2900 VRB04KT 9999 SCT045CB TEMPO 2815/2817 VRB15KT 5000 TSRA BECMG 2817/2819 NSC

Weather observations and forecasts of more than 4000 airports (METAR and TAF reports).

The available stations are represented by yellow and red dots on the map.

Hover mouse over dot to see the name of the station.

Then click to see weather observations and forecasts.

To change the map : click on the green buttons with a black cross to zoom in, on the green button with a dash to zoom out, or on the green arrows for adjacent maps.


METAR-TAF: